createdAt,value
2023-04-25T00:00:16.100Z,99153.78
2023-04-25T00:02:43.722Z,99143.66
2023-04-25T00:05:11.299Z,99147.06
2023-04-25T00:07:38.134Z,99145.38
2023-04-25T00:10:06.014Z,99147.91
2023-04-25T00:12:34.472Z,99149.63
2023-04-25T00:15:01.253Z,99150.44
2023-04-25T00:17:28.143Z,99159.72
2023-04-25T00:19:55.038Z,99156.34
2023-04-25T00:22:22.391Z,99158.88
2023-04-25T00:24:49.203Z,99150.44
2023-04-25T00:27:16.281Z,99150.44
2023-04-25T00:29:43.101Z,99154.66
2023-04-25T00:32:09.850Z,99150.44
2023-04-25T00:34:36.998Z,99146.25
2023-04-25T00:37:03.774Z,99153.00
2023-04-25T00:39:30.586Z,99155.53
2023-04-25T00:41:58.763Z,99156.41
2023-04-25T00:44:27.719Z,99158.13
2023-04-25T00:46:56.816Z,99164.84
2023-04-25T00:49:23.618Z,99166.56
2023-04-25T00:51:51.255Z,99165.69
2023-04-25T00:54:18.263Z,99168.25
2023-04-25T00:56:46.671Z,99155.59
2023-04-25T00:59:14.359Z,99176.66
2023-04-25T01:01:42.603Z,99164.03
2023-04-25T01:04:09.720Z,99167.38
2023-04-25T01:06:36.834Z,99166.56
2023-04-25T01:09:05.810Z,99173.34
2023-04-25T01:11:32.911Z,99172.53
2023-04-25T01:14:00.118Z,99167.47
2023-04-25T01:16:27.759Z,99172.56
2023-04-25T01:18:55.983Z,99165.00
2023-04-25T01:21:22.821Z,99173.41
2023-04-25T01:23:49.980Z,99169.19
2023-04-25T01:26:17.336Z,99176.75
2023-04-25T01:28:44.399Z,99177.63
2023-04-25T01:31:13.256Z,99182.69
2023-04-25T01:33:40.159Z,99183.50
2023-04-25T01:36:07.657Z,99186.84
2023-04-25T01:38:34.875Z,99188.53
2023-04-25T01:41:01.825Z,99186.00
2023-04-25T01:43:28.885Z,99185.16
2023-04-25T01:45:56.236Z,99189.34
2023-04-25T01:48:23.043Z,99185.13
2023-04-25T01:50:49.788Z,99192.72
2023-04-25T01:53:16.781Z,99196.13
2023-04-25T01:55:43.684Z,99199.47
2023-04-25T01:58:10.908Z,99199.50
2023-04-25T02:00:39.814Z,99196.97
2023-04-25T02:03:07.524Z,99202.00
2023-04-25T02:05:39.539Z,99201.16
2023-04-25T02:08:08.842Z,99199.47
2023-04-25T02:10:36.786Z,99194.41
2023-04-25T02:13:05.324Z,99196.09
2023-04-25T02:15:32.669Z,99194.41
2023-04-25T02:18:01.082Z,99195.25
2023-04-25T02:20:30.974Z,99197.78
2023-04-25T02:22:57.789Z,99193.56
2023-04-25T02:25:24.789Z,99195.25
2023-04-25T02:27:52.332Z,99201.16
2023-04-25T02:30:19.095Z,99197.78
2023-04-25T02:32:46.464Z,99202.00
2023-04-25T02:35:13.522Z,99196.06
2023-04-25T02:37:41.447Z,99198.63
2023-04-25T02:40:09.479Z,99191.03
2023-04-25T02:42:36.567Z,99191.03
2023-04-25T02:45:04.378Z,99195.25
2023-04-25T02:47:31.642Z,99192.72
2023-04-25T02:49:58.629Z,99188.50
2023-04-25T02:52:26.339Z,99197.78
2023-04-25T02:54:53.177Z,99191.03
2023-04-25T02:57:20.152Z,99194.38
2023-04-25T02:59:46.992Z,99202.84
2023-04-25T03:02:13.777Z,99200.31
2023-04-25T03:04:41.104Z,99202.81
2023-04-25T03:07:08.262Z,99197.75
2023-04-25T03:09:35.714Z,99199.44
2023-04-25T03:12:02.494Z,99204.53
2023-04-25T03:14:29.423Z,99204.53
2023-04-25T03:16:56.252Z,99212.13
2023-04-25T03:19:23.132Z,99206.22
2023-04-25T03:21:50.153Z,99207.09
2023-04-25T03:24:16.916Z,99210.47
2023-04-25T03:26:43.696Z,99210.50
2023-04-25T03:29:10.623Z,99211.34
2023-04-25T03:31:37.416Z,99201.22
2023-04-25T03:34:04.256Z,99207.16
2023-04-25T03:36:31.519Z,99202.94
2023-04-25T03:38:58.331Z,99208.88
2023-04-25T03:41:25.904Z,99218.97
2023-04-25T03:43:52.897Z,99216.47
2023-04-25T03:46:19.936Z,99217.31
2023-04-25T03:48:46.816Z,99221.53
2023-04-25T03:51:13.571Z,99226.59
2023-04-25T03:53:40.337Z,99224.06
2023-04-25T03:56:07.708Z,99224.94
2023-04-25T03:58:34.710Z,99219.03
2023-04-25T04:01:04.418Z,99221.56
2023-04-25T04:03:31.444Z,99215.66
2023-04-25T04:05:59.939Z,99215.66
2023-04-25T04:08:26.718Z,99223.25
2023-04-25T04:10:55.882Z,99229.16
2023-04-25T04:13:22.845Z,99234.22
2023-04-25T04:15:49.780Z,99230.03
2023-04-25T04:18:16.954Z,99233.38
2023-04-25T04:20:43.809Z,99235.09
2023-04-25T04:23:11.618Z,99231.69
2023-04-25T04:25:38.776Z,99235.94
2023-04-25T04:28:06.004Z,99238.44
2023-04-25T04:30:34.188Z,99240.97
2023-04-25T04:33:01.917Z,99239.28
2023-04-25T04:35:28.891Z,99249.41
2023-04-25T04:37:56.357Z,99246.88
2023-04-25T04:40:23.205Z,99246.88
2023-04-25T04:42:50.492Z,99255.28
2023-04-25T04:45:17.882Z,99261.19
2023-04-25T04:47:46.697Z,99260.34
2023-04-25T04:50:13.529Z,99262.03
2023-04-25T04:52:40.295Z,99257.78
2023-04-25T04:55:08.697Z,99261.16
2023-04-25T04:57:36.804Z,99263.69
2023-04-25T05:00:06.129Z,99265.38
2023-04-25T05:02:32.912Z,99270.41
2023-04-25T05:04:59.728Z,99277.13
2023-04-25T05:07:26.500Z,99276.28
2023-04-25T05:09:53.217Z,99277.94
2023-04-25T05:12:20.005Z,99291.41
2023-04-25T05:14:46.772Z,99288.84
2023-04-25T05:17:13.594Z,99293.91
2023-04-25T05:19:40.686Z,99295.53
2023-04-25T05:22:07.517Z,99295.50
2023-04-25T05:24:34.302Z,99298.00
2023-04-25T05:27:01.094Z,99303.03
2023-04-25T05:29:27.881Z,99317.31
2023-04-25T05:31:54.674Z,99309.72
2023-04-25T05:34:21.665Z,99313.06
2023-04-25T05:36:49.554Z,99315.59
2023-04-25T05:39:19.125Z,99314.72
2023-04-25T05:41:45.966Z,99310.50
2023-04-25T05:44:12.715Z,99312.97
2023-04-25T05:46:39.505Z,99318.00
2023-04-25T05:49:06.303Z,99323.03
2023-04-25T05:51:33.016Z,99317.97
2023-04-25T05:53:59.772Z,99329.75
2023-04-25T05:56:26.800Z,99326.31
2023-04-25T05:58:53.845Z,99321.19
2023-04-25T06:01:20.839Z,99326.22
2023-04-25T06:03:48.182Z,99330.38
2023-04-25T06:06:15.305Z,99321.84
2023-04-25T06:08:42.434Z,99321.75
2023-04-25T06:11:09.194Z,99325.91
2023-04-25T06:13:35.997Z,99327.50
2023-04-25T06:16:02.838Z,99317.28
2023-04-25T06:18:29.681Z,99329.75
2023-04-25T06:20:56.678Z,99334.63
2023-04-25T06:23:23.521Z,99346.19
2023-04-25T06:25:50.261Z,99355.19
2023-04-25T06:28:17.050Z,99354.97
2023-04-25T06:30:43.889Z,99354.75
2023-04-25T06:33:10.742Z,99359.59
2023-04-25T06:35:37.597Z,99351.78
2023-04-25T06:38:04.403Z,99354.03
2023-04-25T06:40:31.145Z,99352.91
2023-04-25T06:42:57.926Z,99365.25
2023-04-25T06:45:24.697Z,99364.00
2023-04-25T06:47:51.513Z,99368.72
2023-04-25T06:50:18.410Z,99355.63
2023-04-25T06:52:45.159Z,99372.09
2023-04-25T06:55:11.985Z,99370.63
2023-04-25T06:57:38.757Z,99368.19
2023-04-25T07:00:09.398Z,99368.41
2023-04-25T07:02:36.812Z,99364.38
2023-04-25T07:05:05.269Z,99370.78
2023-04-25T07:07:32.096Z,99374.06
2023-04-25T07:09:58.845Z,99368.06
2023-04-25T07:12:25.664Z,99368.13
2023-04-25T07:14:52.413Z,99377.63
2023-04-25T07:17:19.190Z,99371.06
2023-04-25T07:19:46.140Z,99367.84
2023-04-25T07:22:12.905Z,99381.75
2023-04-25T07:24:40.133Z,99382.88
2023-04-25T07:27:07.145Z,99377.16
2023-04-25T07:29:36.750Z,99379.06
2023-04-25T07:32:03.705Z,99385.94
2023-04-25T07:34:31.374Z,99388.56
2023-04-25T07:36:58.177Z,99394.56
2023-04-25T07:39:24.949Z,99387.13
2023-04-25T07:41:54.525Z,99397.47
2023-04-25T07:44:22.023Z,99407.69
2023-04-25T07:46:48.801Z,99397.47
2023-04-25T07:49:15.727Z,99413.50
2023-04-25T07:51:44.274Z,99409.19
2023-04-25T07:54:15.023Z,99418.25
2023-04-25T07:56:52.255Z,99416.06
2023-04-25T07:59:20.964Z,99423.06
2023-04-25T08:01:47.659Z,99409.84
2023-04-25T08:04:15.021Z,99420.47
2023-04-25T08:06:42.108Z,99422.69
2023-04-25T08:09:10.325Z,99424.97
2023-04-25T08:11:37.860Z,99434.09
2023-04-25T08:14:04.690Z,99436.44
2023-04-25T08:16:31.886Z,99443.94
2023-04-25T08:18:59.857Z,99442.00
2023-04-25T08:21:27.865Z,99445.09
2023-04-25T08:23:54.794Z,99440.50
2023-04-25T08:26:21.584Z,99447.72
2023-04-25T08:28:48.589Z,99460.84
2023-04-25T08:31:15.972Z,99459.56
2023-04-25T08:33:43.090Z,99459.91
2023-04-25T08:36:10.215Z,99457.69
2023-04-25T08:38:37.615Z,99462.78
2023-04-25T08:41:07.461Z,99467.94
2023-04-25T08:43:36.079Z,99475.06
2023-04-25T08:46:03.373Z,99474.06
2023-04-25T08:48:35.743Z,99478.00
2023-04-25T08:53:36.154Z,99481.25
2023-04-25T08:56:03.831Z,99487.22
2023-04-25T08:58:31.540Z,99479.22
2023-04-25T09:00:58.383Z,99489.94
2023-04-25T09:03:25.570Z,99494.22
2023-04-25T09:05:53.468Z,99487.63
2023-04-25T09:08:20.186Z,99492.88
2023-04-25T09:10:47.577Z,99499.19
2023-04-25T09:13:24.657Z,99506.78
2023-04-25T09:15:54.517Z,99508.72
2023-04-25T09:18:35.312Z,99510.56
2023-04-25T09:21:15.204Z,99511.50
2023-04-25T09:23:47.395Z,99511.91
2023-04-25T09:26:20.521Z,99513.84
2023-04-25T09:28:49.034Z,99519.09
2023-04-25T09:31:25.549Z,99522.50
2023-04-25T09:34:02.069Z,99519.84
2023-04-25T09:36:31.000Z,99537.03
2023-04-25T09:39:00.751Z,99531.06
2023-04-25T09:41:27.514Z,99534.44
2023-04-25T09:44:00.024Z,99542.16
2023-04-25T09:46:34.533Z,99546.34
2023-04-25T09:49:08.832Z,99546.03
2023-04-25T09:51:35.653Z,99554.97
2023-04-25T09:54:02.435Z,99560.38
2023-04-25T09:56:37.965Z,99562.38
2023-04-25T09:59:06.681Z,99562.69
2023-04-25T10:01:33.937Z,99565.63
2023-04-25T10:04:04.528Z,99571.00
2023-04-25T10:06:35.595Z,99573.59
2023-04-25T10:09:04.734Z,99574.34
2023-04-25T10:11:33.603Z,99573.94
2023-04-25T10:14:01.720Z,99571.59
2023-04-25T10:16:29.780Z,99578.97
2023-04-25T10:18:57.551Z,99572.50
2023-04-25T10:21:28.448Z,99575.28
2023-04-25T10:23:56.505Z,99570.44
2023-04-25T10:26:24.496Z,99562.56
2023-04-25T10:29:03.701Z,99563.38
2023-04-25T10:31:32.161Z,99560.69
2023-04-25T10:34:02.211Z,99555.78
2023-04-25T10:36:33.592Z,99553.59
2023-04-25T10:39:07.895Z,99553.78
2023-04-25T10:41:49.126Z,99556.63
2023-04-25T10:44:16.513Z,99571.69
2023-04-25T10:46:46.923Z,99558.06
2023-04-25T10:49:37.352Z,99554.91
2023-04-25T10:52:27.262Z,99556.38
2023-04-25T10:54:57.078Z,99563.50
2023-04-25T10:57:47.028Z,99552.47
2023-04-25T11:00:20.001Z,99567.88
2023-04-25T11:02:54.103Z,99563.06
2023-04-25T11:05:26.852Z,99566.00
2023-04-25T11:08:06.399Z,99568.59
2023-04-25T11:10:38.330Z,99556.06
2023-04-25T11:13:05.928Z,99565.41
2023-04-25T11:15:32.816Z,99572.72
2023-04-25T11:17:59.612Z,99561.06
2023-04-25T11:20:29.178Z,99564.00
2023-04-25T11:23:00.973Z,99568.72
2023-04-25T11:25:28.852Z,99573.66
2023-04-25T11:27:58.906Z,99576.34
2023-04-25T11:30:27.896Z,99578.19
2023-04-25T11:32:54.931Z,99585.59
2023-04-25T11:35:24.024Z,99588.31
2023-04-25T11:37:51.225Z,99587.16
2023-04-25T11:40:18.655Z,99586.66
2023-04-25T11:42:47.757Z,99585.88
2023-04-25T11:45:15.704Z,99586.53
2023-04-25T11:47:42.603Z,99588.00
2023-04-25T11:50:10.796Z,99586.69
2023-04-25T11:52:48.922Z,99587.84
2023-04-25T11:55:19.248Z,99595.69
2023-04-25T11:57:52.884Z,99597.38
2023-04-25T12:00:22.430Z,99594.63
2023-04-25T12:03:01.681Z,99599.38
2023-04-25T12:05:34.753Z,99598.78
2023-04-25T12:08:13.364Z,99600.41
2023-04-25T12:10:42.757Z,99600.97
2023-04-25T12:13:29.024Z,99604.16
2023-04-25T12:15:57.063Z,99601.41
2023-04-25T12:18:29.735Z,99591.78
2023-04-25T12:20:57.076Z,99609.41
2023-04-25T12:23:29.182Z,99610.03
2023-04-25T12:25:56.816Z,99605.59
2023-04-25T12:28:25.856Z,99604.56
2023-04-25T12:30:59.009Z,99605.06
2023-04-25T12:33:27.928Z,99600.28
2023-04-25T12:35:56.877Z,99602.44
2023-04-25T12:38:31.055Z,99597.75
2023-04-25T12:40:59.346Z,99607.34
2023-04-25T12:43:26.667Z,99608.44
2023-04-25T12:45:55.061Z,99608.47
2023-04-25T12:48:22.816Z,99598.69
2023-04-25T12:50:51.652Z,99610.34
2023-04-25T12:53:24.765Z,99611.94
2023-04-25T12:55:52.204Z,99615.59
2023-04-25T12:58:20.910Z,99621.97
2023-04-25T13:00:48.802Z,99620.50
2023-04-25T13:03:15.806Z,99617.66
2023-04-25T13:05:43.653Z,99621.00
2023-04-25T13:08:10.637Z,99619.34
2023-04-25T13:10:39.380Z,99612.81
2023-04-25T13:13:06.235Z,99628.38
2023-04-25T13:15:33.583Z,99625.91
2023-04-25T13:18:00.450Z,99625.56
2023-04-25T13:20:27.426Z,99624.91
2023-04-25T13:22:54.183Z,99624.81
2023-04-25T13:25:22.730Z,99626.31
2023-04-25T13:27:49.757Z,99617.56
2023-04-25T13:30:16.730Z,99623.31
2023-04-25T13:32:43.828Z,99628.56
2023-04-25T13:35:14.803Z,99627.09
2023-04-25T13:37:41.891Z,99628.06
2023-04-25T13:40:12.217Z,99627.09
2023-04-25T13:42:40.141Z,99631.28
2023-04-25T13:45:08.614Z,99640.19
2023-04-25T13:47:36.397Z,99640.09
2023-04-25T13:50:06.517Z,99635.00
2023-04-25T13:52:33.268Z,99643.69
2023-04-25T13:55:00.633Z,99637.00
2023-04-25T13:57:27.447Z,99644.00
2023-04-25T13:59:54.739Z,99646.69
2023-04-25T14:02:21.459Z,99653.63
2023-04-25T14:04:48.315Z,99647.50
2023-04-25T14:07:18.892Z,99653.31
2023-04-25T14:09:45.735Z,99650.47
2023-04-25T14:12:12.548Z,99654.38
2023-04-25T14:14:39.307Z,99653.16
2023-04-25T14:17:07.263Z,99655.25
2023-04-25T14:19:33.957Z,99658.84
2023-04-25T14:22:00.765Z,99658.03
2023-04-25T14:24:27.516Z,99664.88
2023-04-25T14:26:54.277Z,99665.09
2023-04-25T14:29:21.091Z,99670.25
2023-04-25T14:31:48.003Z,99666.06
2023-04-25T14:34:14.744Z,99669.53
2023-04-25T14:36:41.495Z,99674.66
2023-04-25T14:39:08.222Z,99673.72
2023-04-25T14:41:34.941Z,99673.69
2023-04-25T14:44:02.267Z,99662.72
2023-04-25T14:46:29.531Z,99662.78
2023-04-25T14:48:57.233Z,99662.72
2023-04-25T14:51:24.382Z,99670.41
2023-04-25T14:53:52.123Z,99666.25
2023-04-25T14:56:19.815Z,99671.38
2023-04-25T14:58:47.118Z,99675.63
2023-04-25T15:01:14.806Z,99667.13
2023-04-25T15:03:42.020Z,99675.59
2023-04-25T15:06:09.060Z,99663.50
2023-04-25T15:08:36.846Z,99659.16
2023-04-25T15:11:03.961Z,99655.69
2023-04-25T15:13:30.966Z,99666.00
2023-04-25T15:15:57.725Z,99672.03
2023-04-25T15:18:24.740Z,99669.59
2023-04-25T15:20:55.030Z,99669.75
2023-04-25T15:23:22.852Z,99674.88
2023-04-25T15:25:53.367Z,99672.31
2023-04-25T15:28:22.213Z,99679.22
2023-04-25T15:30:49.555Z,99679.41
2023-04-25T15:33:16.457Z,99680.56
2023-04-25T15:35:43.881Z,99679.03
2023-04-25T15:38:11.561Z,99679.16
2023-04-25T15:40:38.583Z,99685.19
2023-04-25T15:43:05.445Z,99686.91
2023-04-25T15:45:33.021Z,99682.59
2023-04-25T15:47:59.910Z,99683.34
2023-04-25T15:50:26.963Z,99683.34
2023-04-25T15:52:54.125Z,99687.66
2023-04-25T15:55:21.849Z,99682.53
2023-04-25T15:57:51.255Z,99694.50
2023-04-25T16:00:19.279Z,99691.25
2023-04-25T16:02:48.233Z,99689.66
2023-04-25T16:05:15.677Z,99696.66
2023-04-25T16:07:44.541Z,99695.09
2023-04-25T16:10:12.745Z,99704.66
2023-04-25T16:12:42.769Z,99700.63
2023-04-25T16:15:09.764Z,99699.91
2023-04-25T16:17:36.678Z,99699.03
2023-04-25T16:20:10.212Z,99703.22
2023-04-25T16:22:40.551Z,99699.78
2023-04-25T16:25:08.223Z,99699.69
2023-04-25T16:27:36.190Z,99704.81
2023-04-25T16:30:04.534Z,99692.09
2023-04-25T16:32:31.314Z,99702.50
2023-04-25T16:34:59.016Z,99704.34
2023-04-25T16:37:26.856Z,99706.13
2023-04-25T16:39:53.686Z,99703.75
2023-04-25T16:42:20.576Z,99709.06
2023-04-25T16:44:47.480Z,99711.78
2023-04-25T16:47:18.663Z,99708.53
2023-04-25T16:49:46.943Z,99709.47
2023-04-25T16:52:14.241Z,99704.53
2023-04-25T16:54:41.060Z,99703.84
2023-04-25T16:57:10.931Z,99705.66
2023-04-25T16:59:39.219Z,99708.41
2023-04-25T17:02:10.679Z,99703.41
2023-04-25T17:04:37.546Z,99705.28
2023-04-25T17:07:04.597Z,99713.88
2023-04-25T17:09:32.506Z,99712.28
2023-04-25T17:11:59.806Z,99710.66
2023-04-25T17:14:27.194Z,99712.41
2023-04-25T17:16:54.136Z,99711.72
2023-04-25T17:19:21.498Z,99706.72
2023-04-25T17:21:48.385Z,99708.53
2023-04-25T17:24:15.807Z,99718.84
2023-04-25T17:26:42.696Z,99716.41
2023-04-25T17:29:09.508Z,99720.78
2023-04-25T17:31:36.626Z,99734.47
2023-04-25T17:34:05.010Z,99732.94
2023-04-25T17:36:47.392Z,99744.13
2023-04-25T17:39:17.782Z,99736.66
2023-04-25T17:41:44.992Z,99741.84
2023-04-25T17:44:11.923Z,99749.56
2023-04-25T17:46:38.901Z,99748.88
2023-04-25T17:49:06.198Z,99742.19
2023-04-25T17:51:32.950Z,99749.06
2023-04-25T17:53:59.706Z,99742.41
2023-04-25T17:56:27.544Z,99751.03
2023-04-25T17:58:55.227Z,99764.72
2023-04-25T18:01:22.554Z,99760.53
2023-04-25T18:03:52.157Z,99762.38
2023-04-25T18:06:19.247Z,99768.34
2023-04-25T18:08:47.041Z,99765.88
2023-04-25T18:11:14.023Z,99755.81
2023-04-25T18:13:41.444Z,99755.91
2023-04-25T18:16:08.709Z,99766.97
2023-04-25T18:18:36.814Z,99769.59
2023-04-25T18:21:05.596Z,99769.66
2023-04-25T18:23:40.866Z,99772.28
2023-04-25T18:26:10.579Z,99770.66
2023-04-25T18:28:40.512Z,99778.34
2023-04-25T18:31:19.378Z,99780.97
2023-04-25T18:34:09.126Z,99777.63
2023-04-25T18:37:00.333Z,99790.41
2023-04-25T18:39:45.628Z,99799.75
2023-04-25T18:42:34.140Z,99806.59
2023-04-25T18:45:01.001Z,99800.69
2023-04-25T18:47:27.814Z,99808.34
2023-04-25T18:49:54.585Z,99804.75
2023-04-25T18:52:22.443Z,99803.13
2023-04-25T18:54:49.417Z,99810.84
2023-04-25T18:57:17.787Z,99801.59
2023-04-25T18:59:46.134Z,99816.91
2023-04-25T19:02:16.703Z,99820.31
2023-04-25T19:04:44.124Z,99822.84
2023-04-25T19:07:14.821Z,99821.16
2023-04-25T19:09:41.672Z,99822.06
2023-04-25T19:12:08.824Z,99832.22
2023-04-25T19:14:36.277Z,99828.81
2023-04-25T19:17:11.870Z,99836.44
2023-04-25T19:19:53.824Z,99839.00
2023-04-25T19:22:27.483Z,99841.50
2023-04-25T19:25:03.123Z,99841.53
2023-04-25T19:27:37.089Z,99843.22
2023-04-25T19:30:08.101Z,99838.13
2023-04-25T19:32:35.910Z,99849.97
2023-04-25T19:35:04.031Z,99843.19
2023-04-25T19:37:31.135Z,99849.13
2023-04-25T19:39:58.100Z,99855.03
2023-04-25T19:42:25.011Z,99849.09
2023-04-25T19:44:52.691Z,99855.84
2023-04-25T19:47:19.670Z,99862.59
2023-04-25T19:49:47.410Z,99866.78
2023-04-25T19:52:14.878Z,99866.81
2023-04-25T19:54:41.957Z,99865.09
2023-04-25T19:57:09.489Z,99876.06
2023-04-25T19:59:36.392Z,99869.34
2023-04-25T20:02:04.916Z,99876.94
2023-04-25T20:04:32.054Z,99882.81
2023-04-25T20:06:59.340Z,99878.59
2023-04-25T20:09:26.231Z,99879.44
2023-04-25T20:11:53.926Z,99887.03
2023-04-25T20:14:21.859Z,99882.81
2023-04-25T20:16:48.706Z,99889.50
2023-04-25T20:19:15.685Z,99884.41
2023-04-25T20:21:42.647Z,99883.56
2023-04-25T20:24:11.378Z,99885.22
2023-04-25T20:26:38.358Z,99889.38
2023-04-25T20:29:07.100Z,99881.78
2023-04-25T20:31:37.025Z,99889.38
2023-04-25T20:34:06.528Z,99892.75
2023-04-25T20:36:33.678Z,99894.44
2023-04-25T20:39:01.287Z,99901.19
2023-04-25T20:41:28.184Z,99895.28
2023-04-25T20:43:54.947Z,99907.13
2023-04-25T20:46:22.254Z,99903.72
2023-04-25T20:48:49.392Z,99911.34
2023-04-25T20:51:16.662Z,99913.88
2023-04-25T20:53:43.468Z,99909.69
2023-04-25T20:56:10.898Z,99912.22
2023-04-25T20:58:37.666Z,99909.69
2023-04-25T21:01:06.329Z,99918.97
2023-04-25T21:03:34.364Z,99912.22
2023-04-25T21:06:02.012Z,99909.69
2023-04-25T21:08:28.794Z,99909.72
2023-04-25T21:10:55.701Z,99901.25
2023-04-25T21:13:22.670Z,99909.69
2023-04-25T21:15:49.477Z,99908.03
2023-04-25T21:18:16.548Z,99908.88
2023-04-25T21:20:43.473Z,99912.25
2023-04-25T21:23:10.446Z,99912.22
2023-04-25T21:25:37.339Z,99917.28
2023-04-25T21:28:04.132Z,99918.16
2023-04-25T21:30:31.406Z,99918.16
2023-04-25T21:32:58.400Z,99919.81
2023-04-25T21:35:25.521Z,99922.34
2023-04-25T21:37:52.591Z,99923.22
2023-04-25T21:40:19.660Z,99920.69
2023-04-25T21:42:51.451Z,99924.03
2023-04-25T21:45:19.776Z,99925.75
2023-04-25T21:47:47.773Z,99928.28
2023-04-25T21:50:15.271Z,99925.72
2023-04-25T21:52:42.139Z,99928.25
2023-04-25T21:55:10.443Z,99935.00
2023-04-25T21:57:37.273Z,99932.44
2023-04-25T22:00:20.069Z,99935.78
2023-04-25T22:02:51.032Z,99929.88
2023-04-25T22:05:22.457Z,99944.22
2023-04-25T22:07:54.879Z,99937.44
2023-04-25T22:10:22.037Z,99950.06
2023-04-25T22:12:51.949Z,99944.97
2023-04-25T22:15:21.384Z,99943.25
2023-04-25T22:17:48.659Z,99945.72
2023-04-25T22:20:15.616Z,99940.59
2023-04-25T22:22:45.335Z,99948.19
2023-04-25T22:25:12.503Z,99943.06
2023-04-25T22:27:43.669Z,99959.06
2023-04-25T22:30:15.266Z,99963.25
2023-04-25T22:32:42.786Z,99959.03
2023-04-25T22:35:10.646Z,99961.53
2023-04-25T22:37:37.693Z,99969.97
2023-04-25T22:40:09.136Z,99964.88
2023-04-25T22:42:40.475Z,99972.44
2023-04-25T22:45:08.891Z,99969.91
2023-04-25T22:47:37.709Z,99970.72
2023-04-25T22:50:13.103Z,99966.44
2023-04-25T22:52:41.886Z,99967.22
2023-04-25T22:55:10.248Z,99967.16
2023-04-25T22:57:41.403Z,99967.09
2023-04-25T23:00:29.981Z,99966.19
2023-04-25T23:02:57.143Z,99967.75
2023-04-25T23:05:24.678Z,99974.44
2023-04-25T23:07:51.567Z,99975.22
2023-04-25T23:10:19.289Z,99977.63
2023-04-25T23:12:46.067Z,99981.78
2023-04-25T23:15:13.359Z,99971.59
2023-04-25T23:17:40.872Z,99977.44
2023-04-25T23:20:10.674Z,99985.78
2023-04-25T23:22:38.085Z,99992.41
2023-04-25T23:25:07.473Z,99987.28
2023-04-25T23:27:34.314Z,99994.81
2023-04-25T23:30:01.308Z,99984.59
2023-04-25T23:32:28.129Z,99991.25
2023-04-25T23:34:55.126Z,99996.25
2023-04-25T23:37:21.911Z,99990.28
2023-04-25T23:39:52.408Z,99995.25
2023-04-25T23:42:20.012Z,99992.69
2023-04-25T23:44:46.863Z,100000.13
2023-04-25T23:47:17.377Z,99995.00
2023-04-25T23:49:45.661Z,100001.69
2023-04-25T23:52:13.052Z,100000.81
2023-04-25T23:54:39.886Z,100005.78
2023-04-25T23:57:06.702Z,99993.97
2023-04-25T23:59:33.942Z,100001.50
